»·PEaware :: SKY756 KFHR-KORS

SKY756 :: KFHR-KORS

FLIGHT INFORMATION

Flight Status: Arrived
Operator:
Sky High Charters
More flights by this operator :: More flights under this callsign
Pilot: Kyle H. (19522)
Aircraft: BEECH AIRCRAFT BONANZA
(BE36)
More flights by this aircraft type
Origin: KFHR Friday Harbor
United States
Destination: KORS Orcas Island
United States
More flights between these airports :: More routes between these airports
Route: ODP FHR
File this flight plan on PilotEdge
Remarks: SKY HIGH CHARTERS - San Juan Sortie 2nd leg
Altitude:
(Current/Filed)
5,000ft
Speed:
(Current/Filed)
155kts
Departed: 19-Apr-20 10:36 AM
Arrived: 19-Apr-20 11:00 AM
Distance/Time
Traveled:
12nm/0:24
Distance/Time
To Go:
Arrived

Flight Plot

Page will automatically refresh every two minutes.

Flight plan parsing failed; only flown route is shown


Map Options




Map Legend


Flown Route
Filed Route
Departure Airport
Arrival Airport
Navaid (VOR, NDB)
Fix

Horizontal Profiles

Position Reports

Time Latitude Longitude Heading Altitude Ground
Speed
19-Apr-20 10:16 48.525094 -123.026039 79 114ft 0kts
19-Apr-20 10:17 48.525094 -123.026039 79 114ft 0kts
19-Apr-20 10:18 48.525094 -123.026039 79 114ft 0kts
19-Apr-20 10:19 48.525094 -123.026039 79 114ft 0kts
19-Apr-20 10:20 48.525094 -123.026039 79 114ft 0kts
19-Apr-20 10:21 48.525094 -123.026039 79 114ft 0kts
19-Apr-20 10:22 48.525094 -123.026039 79 114ft 0kts
19-Apr-20 10:23 48.525094 -123.026039 79 114ft 0kts
19-Apr-20 10:24 48.525094 -123.026039 79 114ft 0kts
19-Apr-20 10:25 48.525094 -123.026039 79 114ft 0kts
19-Apr-20 10:26 48.525094 -123.026039 79 114ft 0kts
19-Apr-20 10:27 48.525094 -123.026039 79 114ft 0kts
19-Apr-20 10:28 48.525094 -123.026039 79 114ft 0kts
19-Apr-20 10:29 48.524335 -123.025146 178 106ft 18kts
19-Apr-20 10:30 48.517705 -123.024667 178 88ft 17kts
19-Apr-20 10:31 48.517390 -123.024789 119 87ft 0kts
19-Apr-20 10:32 48.517390 -123.024789 119 87ft 0kts
19-Apr-20 10:33 48.517390 -123.024789 119 87ft 0kts
19-Apr-20 10:34 48.517373 -123.024222 76 86ft 8kts
19-Apr-20 10:35 48.531668 -123.025133 354 451ft 86kts
19-Apr-20 10:36 48.558974 -123.034436 300 1301ft 121kts
19-Apr-20 10:37 48.536915 -123.051307 138 2140ft 138kts
19-Apr-20 10:38 48.505098 -123.009144 138 2353ft 163kts
19-Apr-20 10:39 48.471919 -122.999894 255 3128ft 147kts
19-Apr-20 10:40 48.501772 -123.025057 357 3938ft 144kts
19-Apr-20 10:41 48.526456 -123.053818 243 4690ft 134kts
19-Apr-20 10:42 48.505818 -123.102793 236 5000ft 153kts
19-Apr-20 10:43 48.480940 -123.159157 235 4994ft 166kts
19-Apr-20 10:44 48.455200 -123.217790 235 4988ft 169kts
19-Apr-20 10:45 48.426577 -123.272325 193 4977ft 167kts
19-Apr-20 10:46 48.396886 -123.226232 128 4990ft 167kts
19-Apr-20 10:47 48.367537 -123.171811 129 4990ft 167kts
19-Apr-20 10:48 48.361520 -123.111446 49 4802ft 173kts
19-Apr-20 10:49 48.398524 -123.065047 38 4301ft 173kts
19-Apr-20 10:50 48.435909 -123.021668 37 3810ft 165kts
19-Apr-20 10:51 48.471765 -122.979793 37 3327ft 161kts
19-Apr-20 10:52 48.506489 -122.939133 38 2989ft 152kts
19-Apr-20 10:53 48.542327 -122.912711 3 2732ft 152kts
19-Apr-20 10:54 48.582082 -122.911469 0 2165ft 110kts
19-Apr-20 10:55 48.607297 -122.911140 359 2195ft 95kts
19-Apr-20 10:56 48.636177 -122.911089 1 2053ft 113kts
19-Apr-20 10:57 48.666728 -122.910896 3 970ft 99kts
19-Apr-20 10:58 48.693267 -122.910634 1 361ft 97kts
19-Apr-20 10:59 48.709524 -122.909990 181 15ft 5kts
19-Apr-20 11:00 48.706613 -122.909735 141 32ft 9kts
19-Apr-20 11:01 48.705983 -122.909464 357 36ft 0kts
19-Apr-20 11:02 48.705983 -122.909464 357 36ft 0kts
19-Apr-20 11:03 48.705983 -122.909464 357 36ft 0kts
19-Apr-20 11:04 48.705983 -122.909464 357 36ft 0kts
19-Apr-20 11:05 48.705983 -122.909464 357 36ft 0kts
19-Apr-20 11:06 48.705983 -122.909464 357 36ft 0kts
19-Apr-20 11:07 48.704253 -122.909657 0 39ft 0kts
19-Apr-20 11:08 48.704045 -122.909657 359 39ft 0kts

Navigation Log

Ident Type
Flight plan parsing failed, navigation log unavailable